Time;durP1;ratioP1;P1;durP2;ratioP2;P2;SDS_P1;SDS_P2;PMS_P1;PMS_P2;Temp;Humidity;BMP_temperature;BMP_pressure;BME280_temperature;BME280_humidity;BME280_pressure;Samples;Min_cycle;Max_cycle;Signal;HPM_P1;HPM_P2
2023/05/08 00:01:26;;;;;;;0.50;0.30;;;14.60;99.90;;;;;;5074176;28;20500;-80
2023/05/08 00:03:53;;;;;;;0.50;0.40;;;14.60;99.90;;;;;;5074087;28;21094;-80
2023/05/08 00:06:20;;;;;;;0.60;0.40;;;14.60;99.90;;;;;;5069689;28;20438;-80
2023/05/08 00:08:48;;;;;;;0.50;0.40;;;14.50;99.90;;;;;;5070997;28;20436;-79
2023/05/08 00:11:15;;;;;;;0.50;0.30;;;14.50;99.90;;;;;;5046178;28;20433;-80
2023/05/08 00:13:42;;;;;;;0.50;0.30;;;14.50;99.90;;;;;;5069641;28;20919;-79
2023/05/08 00:16:10;;;;;;;0.50;0.30;;;14.40;99.90;;;;;;5054574;28;20480;-80
2023/05/08 00:18:37;;;;;;;0.50;0.40;;;14.40;99.90;;;;;;5062504;28;20472;-80
2023/05/08 00:21:04;;;;;;;0.50;0.40;;;14.40;99.90;;;;;;5072190;28;20440;-80
2023/05/08 00:23:31;;;;;;;0.50;0.40;;;14.40;99.90;;;;;;5074243;28;20432;-81
2023/05/08 00:25:59;;;;;;;0.50;0.40;;;14.30;99.90;;;;;;5064630;28;20449;-80
2023/05/08 00:28:26;;;;;;;0.50;0.40;;;14.30;99.90;;;;;;5058442;28;20923;-79
2023/05/08 00:30:53;;;;;;;0.50;0.40;;;14.40;99.90;;;;;;5064318;28;20465;-79
2023/05/08 00:33:20;;;;;;;0.50;0.40;;;14.40;99.90;;;;;;5053862;28;20532;-79
2023/05/08 00:35:47;;;;;;;0.50;0.30;;;14.30;99.90;;;;;;5053581;28;20471;-79
2023/05/08 00:38:14;;;;;;;0.90;0.80;;;14.30;99.90;;;;;;5061894;28;20555;-80
2023/05/08 00:40:41;;;;;;;0.50;0.33;;;14.30;99.90;;;;;;5061437;28;20452;-80
2023/05/08 00:43:10;;;;;;;0.50;0.40;;;14.40;99.90;;;;;;5062932;28;20453;-79
2023/05/08 00:45:39;;;;;;;0.50;0.33;;;14.40;99.90;;;;;;5069810;28;20851;-80
2023/05/08 00:48:06;;;;;;;0.50;0.30;;;14.30;99.90;;;;;;5072421;28;20432;-79
2023/05/08 00:50:33;;;;;;;0.50;0.30;;;14.30;99.90;;;;;;5054665;28;20823;-80
2023/05/08 00:53:02;;;;;;;0.50;0.30;;;14.20;99.90;;;;;;5055100;28;20954;-82
2023/05/08 00:55:30;;;;;;;0.50;0.40;;;14.20;99.90;;;;;;5060416;28;20515;-80
2023/05/08 00:57:57;;;;;;;0.50;0.30;;;14.20;99.90;;;;;;5062370;28;20563;-80
2023/05/08 01:00:26;;;;;;;0.50;0.40;;;14.20;99.90;;;;;;5069464;28;20531;-79
2023/05/08 01:02:53;;;;;;;0.50;0.40;;;14.20;99.90;;;;;;5062364;28;20952;-79
2023/05/08 01:05:20;;;;;;;0.50;0.40;;;14.20;99.90;;;;;;5073988;28;20463;-78
2023/05/08 01:07:47;;;;;;;0.50;0.40;;;14.10;99.90;;;;;;5076213;28;20437;-82
2023/05/08 01:10:13;;;;;;;0.50;0.30;;;14.10;99.90;;;;;;5061350;28;20947;-80
2023/05/08 01:12:57;;;;;;;0.50;0.30;;;14.10;99.90;;;;;;5060186;28;20436;-80
2023/05/08 01:15:30;;;;;;;0.50;0.40;;;14.10;99.90;;;;;;5050436;28;20459;-79
2023/05/08 01:18:06;;;;;;;0.50;0.40;;;14.10;99.90;;;;;;5071987;28;20506;-81
2023/05/08 01:20:42;;;;;;;0.50;0.40;;;14.10;99.90;;;;;;5058530;28;20450;-81
2023/05/08 01:23:41;;;;;;;0.50;0.40;;;14.10;99.90;;;;;;5054393;28;20429;-80
2023/05/08 01:26:42;;;;;;;0.50;0.40;;;14.00;99.90;;;;;;5055520;28;20437;-80
2023/05/08 01:29:45;;;;;;;0.50;0.40;;;14.10;99.90;;;;;;5070223;28;20605;-80
2023/05/08 01:32:17;;;;;;;0.50;0.40;;;14.00;99.90;;;;;;5063270;28;20799;-81
2023/05/08 01:34:51;;;;;;;0.50;0.40;;;14.00;99.90;;;;;;5057869;28;20532;-80
2023/05/08 01:37:27;;;;;;;0.50;0.40;;;14.00;99.90;;;;;;5052825;28;20464;-79
2023/05/08 01:40:02;;;;;;;0.50;0.40;;;14.00;99.90;;;;;;5052072;28;20447;-79
2023/05/08 01:42:39;;;;;;;0.50;0.40;;;14.00;99.90;;;;;;5065877;28;20431;-80
2023/05/08 01:45:12;;;;;;;0.50;0.30;;;13.90;99.90;;;;;;5062546;28;20554;-80
2023/05/08 01:47:42;;;;;;;0.50;0.30;;;13.90;99.90;;;;;;5052315;28;20425;-80
2023/05/08 01:50:15;;;;;;;0.50;0.40;;;13.90;99.90;;;;;;5062474;28;20420;-80
2023/05/08 01:52:45;;;;;;;0.50;0.40;;;13.90;99.90;;;;;;5072840;28;20436;-80
2023/05/08 01:55:17;;;;;;;0.50;0.40;;;13.90;99.90;;;;;;5064162;28;20461;-80
2023/05/08 01:57:49;;;;;;;0.50;0.30;;;14.00;99.90;;;;;;5057300;28;20465;-79
2023/05/08 02:00:19;;;;;;;0.50;0.40;;;14.00;99.90;;;;;;5071788;28;20456;-80
2023/05/08 02:02:48;;;;;;;0.50;0.40;;;14.00;99.90;;;;;;5057565;28;20451;-80
2023/05/08 02:05:16;;;;;;;2.03;1.70;;;13.90;99.90;;;;;;5060269;28;20473;-80
2023/05/08 02:07:46;;;;;;;0.50;0.40;;;13.90;99.90;;;;;;5067263;28;20434;-79
2023/05/08 02:10:15;;;;;;;0.50;0.40;;;13.90;99.90;;;;;;5053031;28;20443;-80
2023/05/08 02:12:44;;;;;;;0.50;0.40;;;13.90;99.90;;;;;;5058690;28;20436;-80
2023/05/08 02:15:13;;;;;;;0.50;0.30;;;13.80;99.90;;;;;;5053603;28;20464;-80
2023/05/08 02:17:41;;;;;;;0.50;0.40;;;13.80;99.90;;;;;;5052035;28;21264;-80
2023/05/08 02:20:13;;;;;;;0.50;0.40;;;13.70;99.90;;;;;;5052083;28;20820;-80
2023/05/08 02:22:43;;;;;;;0.50;0.40;;;13.70;99.90;;;;;;5052283;28;20499;-80
2023/05/08 02:25:13;;;;;;;0.50;0.40;;;13.60;99.90;;;;;;5053904;28;20964;-80
2023/05/08 02:27:42;;;;;;;0.50;0.40;;;13.50;99.90;;;;;;5072187;28;20428;-80
2023/05/08 02:30:12;;;;;;;0.50;0.40;;;13.60;99.90;;;;;;5063337;28;20443;-80
2023/05/08 02:32:41;;;;;;;0.50;0.37;;;13.50;99.90;;;;;;5058007;28;20516;-80
2023/05/08 02:35:12;;;;;;;0.50;0.30;;;13.60;99.90;;;;;;5053182;28;20976;-80
2023/05/08 02:37:40;;;;;;;0.50;0.40;;;13.60;99.90;;;;;;5063833;28;20934;-80
2023/05/08 02:40:09;;;;;;;0.50;0.40;;;13.50;99.90;;;;;;5071542;28;20489;-78
2023/05/08 02:42:36;;;;;;;0.50;0.40;;;13.50;99.90;;;;;;5071777;28;20440;-80
2023/05/08 02:45:04;;;;;;;0.50;0.40;;;13.50;99.90;;;;;;5071787;28;20471;-79
2023/05/08 02:47:43;;;;;;;0.50;0.40;;;13.40;99.90;;;;;;5066684;28;20499;-80
2023/05/08 02:50:17;;;;;;;0.50;0.40;;;13.40;99.90;;;;;;5051379;28;20448;-80
2023/05/08 02:52:48;;;;;;;0.50;0.40;;;13.40;99.90;;;;;;5054930;28;20432;-80
2023/05/08 02:55:29;;;;;;;0.50;0.40;;;13.30;99.90;;;;;;5055212;28;20460;-80
2023/05/08 02:58:07;;;;;;;0.50;0.40;;;13.20;99.90;;;;;;5055224;28;20473;-78
2023/05/08 03:00:42;;;;;;;0.50;0.40;;;13.20;99.90;;;;;;5055499;28;20469;-81
2023/05/08 03:03:15;;;;;;;0.50;0.40;;;13.10;99.90;;;;;;5055097;28;20436;-80
2023/05/08 03:05:47;;;;;;;0.50;0.40;;;13.10;99.90;;;;;;5055190;28;20472;-80
2023/05/08 03:08:18;;;;;;;0.50;0.40;;;13.00;99.90;;;;;;5073661;28;20436;-80
2023/05/08 03:10:49;;;;;;;0.50;0.40;;;13.00;99.90;;;;;;5075082;28;20535;-81
2023/05/08 03:13:16;;;;;;;0.50;0.30;;;13.00;99.90;;;;;;5073133;28;20878;-79
2023/05/08 03:15:46;;;;;;;0.50;0.40;;;13.00;99.90;;;;;;5063796;28;20913;-80
2023/05/08 03:18:17;;;;;;;0.50;0.40;;;13.00;99.90;;;;;;5072847;28;20480;-80
2023/05/08 03:20:52;;;;;;;0.50;0.40;;;13.00;99.90;;;;;;5070154;28;20451;-80
2023/05/08 03:23:21;;;;;;;0.50;0.40;;;13.00;99.90;;;;;;5078186;28;20428;-79
2023/05/08 03:25:48;;;;;;;0.50;0.40;;;13.00;99.90;;;;;;5079936;28;20494;-80
2023/05/08 03:28:15;;;;;;;0.50;0.40;;;13.00;99.90;;;;;;5075480;28;20527;-79
2023/05/08 03:30:43;;;;;;;1.73;1.00;;;13.10;99.90;;;;;;5076175;28;20502;-79
2023/05/08 03:33:12;;;;;;;0.50;0.40;;;13.10;99.90;;;;;;5060673;28;20452;-80
2023/05/08 03:35:40;;;;;;;0.50;0.40;;;13.10;99.90;;;;;;5063382;28;20461;-77
2023/05/08 03:38:08;;;;;;;0.50;0.40;;;13.10;99.90;;;;;;5052956;28;20513;-80
2023/05/08 03:40:37;;;;;;;0.50;0.40;;;13.10;99.90;;;;;;5075937;28;20443;-80
2023/05/08 03:43:06;;;;;;;2.20;2.10;;;13.10;99.90;;;;;;5075896;28;20445;-80
2023/05/08 03:45:36;;;;;;;0.50;0.40;;;13.00;99.90;;;;;;5075369;28;20455;-79
2023/05/08 03:48:04;;;;;;;0.50;0.30;;;13.00;99.90;;;;;;5066781;28;20434;-81
2023/05/08 03:50:32;;;;;;;0.50;0.30;;;13.00;99.90;;;;;;5055731;28;20436;-80
2023/05/08 03:52:59;;;;;;;0.50;0.40;;;12.90;99.90;;;;;;5055694;28;20470;-79
2023/05/08 03:55:27;;;;;;;0.50;0.30;;;12.90;99.90;;;;;;5056156;28;20457;-79
2023/05/08 03:57:59;;;;;;;0.50;0.40;;;12.90;99.90;;;;;;5056384;28;20433;-80
2023/05/08 04:00:35;;;;;;;0.50;0.40;;;12.90;99.90;;;;;;5055972;28;20515;-80
2023/05/08 04:03:13;;;;;;;0.50;0.40;;;12.90;99.90;;;;;;5063777;28;20446;-81
2023/05/08 04:05:50;;;;;;;0.50;0.40;;;12.90;99.90;;;;;;5060950;28;20518;-79
2023/05/08 04:08:22;;;;;;;0.50;0.40;;;12.90;99.90;;;;;;5055577;28;20429;-79
2023/05/08 04:10:58;;;;;;;0.60;0.50;;;12.90;99.90;;;;;;5055857;28;20473;-79
2023/05/08 04:13:31;;;;;;;0.50;0.40;;;13.00;99.90;;;;;;5056058;28;20484;-79
2023/05/08 04:16:05;;;;;;;0.50;0.40;;;13.00;99.90;;;;;;5055612;28;20800;-80
2023/05/08 04:18:37;;;;;;;0.50;0.37;;;13.00;99.90;;;;;;5055639;28;20477;-78
2023/05/08 04:21:09;;;;;;;3.63;3.40;;;13.00;99.90;;;;;;5055028;28;20544;-80
2023/05/08 04:23:38;;;;;;;0.50;0.40;;;13.00;99.90;;;;;;5055685;28;20869;-78
2023/05/08 04:26:07;;;;;;;0.50;0.40;;;12.90;99.90;;;;;;5055125;28;20445;-80
2023/05/08 04:28:34;;;;;;;0.50;0.40;;;13.00;99.90;;;;;;5055103;28;20531;-79
2023/05/08 04:31:03;;;;;;;3.00;2.87;;;13.00;99.90;;;;;;5063438;28;20439;-79
2023/05/08 04:33:31;;;;;;;0.50;0.40;;;12.90;99.90;;;;;;5075483;28;20439;-79
2023/05/08 04:36:00;;;;;;;0.50;0.40;;;13.00;99.90;;;;;;5074930;28;20543;-81
2023/05/08 04:38:27;;;;;;;0.50;0.30;;;13.00;99.90;;;;;;5063365;28;21024;-83
2023/05/08 04:40:54;;;;;;;0.50;0.37;;;13.10;99.90;;;;;;5054695;28;20955;-81
2023/05/08 04:43:22;;;;;;;0.50;0.40;;;13.10;99.90;;;;;;5055053;28;20441;-82
2023/05/08 04:45:49;;;;;;;0.50;0.40;;;13.10;99.90;;;;;;5069390;28;20519;-81
2023/05/08 04:48:17;;;;;;;0.50;0.40;;;13.20;99.90;;;;;;5074528;28;20523;-83
2023/05/08 04:50:44;;;;;;;0.50;0.40;;;13.30;99.90;;;;;;5073784;28;20444;-81
2023/05/08 04:53:11;;;;;;;0.50;0.40;;;13.30;99.90;;;;;;5074309;28;20943;-82
2023/05/08 04:55:38;;;;;;;0.50;0.40;;;13.50;99.90;;;;;;5065856;28;20513;-80
2023/05/08 04:58:05;;;;;;;0.50;0.50;;;13.60;99.90;;;;;;5073925;28;20527;-82
2023/05/08 05:00:34;;;;;;;0.50;0.40;;;13.60;99.90;;;;;;5049348;28;20432;-82
2023/05/08 05:03:01;;;;;;;0.50;0.40;;;13.60;99.90;;;;;;5074231;28;20436;-82
2023/05/08 05:05:28;;;;;;;0.50;0.40;;;13.60;99.90;;;;;;5074076;28;20963;-82
2023/05/08 05:07:54;;;;;;;0.50;0.40;;;13.60;99.90;;;;;;5074088;28;20515;-81
2023/05/08 05:10:21;;;;;;;0.50;0.30;;;13.70;99.90;;;;;;5074184;28;20436;-81
2023/05/08 05:12:48;;;;;;;0.50;0.40;;;13.80;99.90;;;;;;5073980;28;20460;-82
2023/05/08 05:15:15;;;;;;;0.50;0.40;;;13.80;99.90;;;;;;5073004;28;20483;-80
2023/05/08 05:17:43;;;;;;;0.50;0.40;;;13.70;99.90;;;;;;5073709;28;20444;-79
2023/05/08 05:20:12;;;;;;;0.50;0.40;;;13.80;99.90;;;;;;5073854;28;20943;-81
2023/05/08 05:22:39;;;;;;;0.50;0.50;;;13.90;99.90;;;;;;5074081;28;20441;-81
2023/05/08 05:25:06;;;;;;;0.50;0.40;;;14.00;99.90;;;;;;5077268;28;20464;-78
2023/05/08 05:27:35;;;;;;;0.50;0.30;;;14.10;99.90;;;;;;5048694;28;20450;-78
2023/05/08 05:30:02;;;;;;;0.50;0.40;;;14.20;99.90;;;;;;5069897;28;20506;-82
2023/05/08 05:32:29;;;;;;;0.50;0.40;;;14.30;99.90;;;;;;5073628;28;20432;-80
2023/05/08 05:34:57;;;;;;;0.50;0.40;;;14.30;99.90;;;;;;5073614;28;20543;-81
2023/05/08 05:37:24;;;;;;;0.50;0.40;;;14.40;99.90;;;;;;5074385;28;20710;-82
2023/05/08 05:39:51;;;;;;;0.60;0.60;;;14.40;99.90;;;;;;5074110;28;20468;-82
2023/05/08 05:42:18;;;;;;;0.50;0.30;;;14.50;99.90;;;;;;5074233;28;20483;-82
2023/05/08 05:44:44;;;;;;;0.50;0.40;;;14.60;99.90;;;;;;5074312;28;20455;-81
2023/05/08 05:47:11;;;;;;;0.50;0.40;;;14.70;99.90;;;;;;5073992;28;20444;-82
2023/05/08 05:49:41;;;;;;;0.50;0.40;;;14.90;99.90;;;;;;5073412;28;20462;-82
2023/05/08 05:52:10;;;;;;;0.50;0.30;;;15.00;99.90;;;;;;5073395;28;20531;-84
2023/05/08 05:54:37;;;;;;;4.33;4.20;;;15.20;99.90;;;;;;5074463;28;20650;-81
2023/05/08 05:57:04;;;;;;;11.10;10.60;;;15.20;99.90;;;;;;5073929;28;20468;-82
2023/05/08 05:59:31;;;;;;;0.50;0.40;;;15.30;99.90;;;;;;5070887;28;20479;-82
2023/05/08 06:01:58;;;;;;;0.50;0.40;;;15.30;99.90;;;;;;5060104;28;20433;-82
2023/05/08 06:04:25;;;;;;;0.50;0.40;;;15.40;99.90;;;;;;5063253;28;20476;-82
2023/05/08 06:06:52;;;;;;;0.50;0.40;;;15.50;99.90;;;;;;5053737;28;20443;-82
2023/05/08 06:09:20;;;;;;;0.50;0.40;;;15.50;99.90;;;;;;5053219;28;20523;-82
2023/05/08 06:11:47;;;;;;;0.50;0.40;;;15.60;99.90;;;;;;5053550;28;20447;-79
2023/05/08 06:14:14;;;;;;;0.50;0.33;;;15.60;99.90;;;;;;5053200;28;20976;-82
2023/05/08 06:16:41;;;;;;;1.27;1.20;;;15.60;99.90;;;;;;5053488;28;20440;-81
2023/05/08 06:19:08;;;;;;;0.50;0.40;;;15.60;99.90;;;;;;5054135;28;20479;-82
2023/05/08 06:21:34;;;;;;;0.50;0.40;;;15.70;99.90;;;;;;5053077;28;20494;-84
2023/05/08 06:24:02;;;;;;;1.03;1.03;;;15.70;99.90;;;;;;5069108;28;21016;-82
2023/05/08 06:26:30;;;;;;;1.53;0.80;;;15.80;99.90;;;;;;5074554;28;20489;-84
2023/05/08 06:28:57;;;;;;;0.50;0.40;;;15.70;99.90;;;;;;5077475;28;20995;-80
2023/05/08 06:31:24;;;;;;;0.50;0.40;;;15.80;99.90;;;;;;5077392;28;20440;-81
2023/05/08 06:33:50;;;;;;;0.50;0.40;;;15.80;99.90;;;;;;5077466;28;20458;-82
2023/05/08 06:36:17;;;;;;;0.53;0.53;;;15.90;99.90;;;;;;5077287;28;20446;-84
2023/05/08 06:38:44;;;;;;;0.50;0.40;;;16.00;99.90;;;;;;5077515;28;20438;-78
2023/05/08 06:41:11;;;;;;;3.37;1.30;;;16.00;99.90;;;;;;5077009;28;20535;-84
2023/05/08 06:43:39;;;;;;;0.50;0.40;;;15.90;99.90;;;;;;5053180;28;20444;-81
2023/05/08 06:46:06;;;;;;;0.50;0.40;;;15.90;99.90;;;;;;5077419;28;20831;-82
2023/05/08 06:48:33;;;;;;;2.50;2.40;;;16.10;99.90;;;;;;5077111;28;20619;-81
2023/05/08 06:50:59;;;;;;;0.50;0.30;;;16.20;99.90;;;;;;5077151;28;20810;-81
2023/05/08 06:53:26;;;;;;;0.50;0.30;;;16.40;99.90;;;;;;5077017;28;20531;-82
2023/05/08 06:55:53;;;;;;;0.50;0.40;;;16.60;99.90;;;;;;5076713;28;20930;-82
2023/05/08 06:58:20;;;;;;;3.40;3.13;;;16.80;99.90;;;;;;5077211;28;20436;-82
2023/05/08 07:00:48;;;;;;;0.80;0.80;;;16.90;99.90;;;;;;5078592;28;20495;-82
2023/05/08 07:03:15;;;;;;;0.60;0.60;;;16.90;99.90;;;;;;5077330;28;20442;-83
2023/05/08 07:05:42;;;;;;;1.33;1.23;;;16.90;99.90;;;;;;5064448;28;20967;-80
2023/05/08 07:08:09;;;;;;;0.50;0.40;;;17.00;99.90;;;;;;5057159;28;20853;-82
2023/05/08 07:10:35;;;;;;;2.20;1.43;;;17.10;99.90;;;;;;5056529;28;20515;-82
2023/05/08 07:13:02;;;;;;;0.90;0.70;;;17.30;99.90;;;;;;5057156;28;20524;-81
2023/05/08 07:15:31;;;;;;;1.73;0.67;;;17.40;99.90;;;;;;5056556;28;20543;-81
2023/05/08 07:17:59;;;;;;;0.50;0.40;;;17.60;99.90;;;;;;5056581;28;20445;-83
2023/05/08 07:20:26;;;;;;;0.50;0.40;;;17.70;99.90;;;;;;5056305;28;20910;-82
2023/05/08 07:22:53;;;;;;;0.50;0.30;;;19.20;99.90;;;;;;5057675;28;20440;-80
2023/05/08 07:25:20;;;;;;;0.60;0.60;;;21.60;99.90;;;;;;5056127;28;20547;-81
2023/05/08 07:27:47;;;;;;;0.50;0.30;;;24.10;99.90;;;;;;5055876;28;20447;-81
2023/05/08 07:30:14;;;;;;;0.50;0.30;;;25.70;99.90;;;;;;5055888;28;20471;-82
2023/05/08 07:32:41;;;;;;;0.50;0.40;;;26.80;99.90;;;;;;5056317;28;20528;-82
2023/05/08 07:35:11;;;;;;;0.50;0.30;;;27.90;99.90;;;;;;5055638;28;20514;-82
2023/05/08 07:37:38;;;;;;;1.27;0.70;;;29.10;96.50;;;;;;5055522;28;20949;-82
2023/05/08 07:40:06;;;;;;;0.60;0.60;;;29.30;90.70;;;;;;5056905;28;20476;-82
2023/05/08 07:42:39;;;;;;;1.17;1.07;;;28.80;91.20;;;;;;5056240;28;20463;-84
2023/05/08 07:45:07;;;;;;;1.40;1.00;;;29.20;91.00;;;;;;5056300;28;20543;-81
2023/05/08 07:47:34;;;;;;;0.70;0.50;;;28.20;90.30;;;;;;5056681;28;20884;-83
2023/05/08 07:50:01;;;;;;;0.50;0.30;;;27.60;92.70;;;;;;5055936;28;20440;-82
2023/05/08 07:52:30;;;;;;;0.50;0.30;;;26.60;94.10;;;;;;5055514;28;20523;-82
2023/05/08 07:54:58;;;;;;;0.60;0.60;;;25.80;99.00;;;;;;5056242;28;20453;-82
2023/05/08 07:57:25;;;;;;;1.03;0.93;;;23.90;99.90;;;;;;5066030;28;20472;-80
2023/05/08 07:59:52;;;;;;;0.50;0.30;;;22.90;99.90;;;;;;5076028;28;20472;-84
2023/05/08 08:02:18;;;;;;;0.50;0.30;;;22.50;99.90;;;;;;5058671;28;20437;-82
2023/05/08 08:04:45;;;;;;;1.30;0.40;;;22.30;99.90;;;;;;5056084;28;20556;-82
2023/05/08 08:07:12;;;;;;;0.50;0.30;;;21.90;99.90;;;;;;5056168;28;20473;-82
2023/05/08 08:09:40;;;;;;;0.50;0.40;;;22.00;99.90;;;;;;5076208;28;20781;-81
2023/05/08 08:12:08;;;;;;;0.50;0.40;;;22.00;99.90;;;;;;5076154;28;20441;-82
2023/05/08 08:14:34;;;;;;;0.50;0.30;;;22.30;99.90;;;;;;5075659;28;21016;-81
2023/05/08 08:17:01;;;;;;;1.00;0.90;;;22.90;99.90;;;;;;5075384;28;20519;-79
2023/05/08 08:19:28;;;;;;;0.50;0.33;;;23.20;99.90;;;;;;5075062;28;20504;-82
2023/05/08 08:21:55;;;;;;;3.07;0.93;;;23.10;99.90;;;;;;5075009;28;20432;-82
2023/05/08 08:24:23;;;;;;;2.10;1.80;;;23.30;99.90;;;;;;5066602;28;20471;-82
2023/05/08 08:26:51;;;;;;;1.63;1.53;;;23.20;99.90;;;;;;5054970;28;20468;-83
2023/05/08 08:29:18;;;;;;;1.43;0.80;;;22.40;99.90;;;;;;5063583;28;20463;-82
2023/05/08 08:31:45;;;;;;;2.13;1.93;;;21.60;99.90;;;;;;5075143;28;20481;-82
2023/05/08 08:34:12;;;;;;;0.60;0.60;;;21.10;99.90;;;;;;5075315;28;20542;-82
2023/05/08 08:36:39;;;;;;;1.10;0.60;;;20.90;99.90;;;;;;5056820;28;20456;-82
2023/05/08 08:39:06;;;;;;;2.30;1.43;;;21.10;99.90;;;;;;5055852;28;20544;-82
2023/05/08 08:41:33;;;;;;;0.50;0.40;;;21.00;99.90;;;;;;5066094;28;20480;-80
2023/05/08 08:44:01;;;;;;;1.67;1.57;;;21.30;99.90;;;;;;5076279;28;20979;-79
2023/05/08 08:46:29;;;;;;;0.50;0.30;;;21.20;99.90;;;;;;5076350;28;20444;-84
2023/05/08 08:48:57;;;;;;;2.20;0.70;;;21.30;99.90;;;;;;5075052;28;20444;-81
2023/05/08 08:51:28;;;;;;;0.60;0.50;;;21.90;99.90;;;;;;5075262;28;20436;-80
2023/05/08 08:54:04;;;;;;;1.03;0.77;;;22.00;99.90;;;;;;5062874;28;20491;-81
2023/05/08 08:56:32;;;;;;;0.73;0.63;;;21.50;99.90;;;;;;5055481;28;20498;-82
2023/05/08 08:59:01;;;;;;;0.50;0.40;;;21.40;99.90;;;;;;5070225;28;20444;-82
2023/05/08 09:01:32;;;;;;;1.20;0.50;;;21.70;99.90;;;;;;5074631;28;20482;-82
2023/05/08 09:03:59;;;;;;;0.50;0.30;;;22.00;99.90;;;;;;5074790;28;20471;-82
2023/05/08 09:06:27;;;;;;;0.97;0.97;;;22.20;99.90;;;;;;5074825;28;20455;-83
2023/05/08 09:08:56;;;;;;;0.50;0.30;;;22.50;99.90;;;;;;5070148;28;20441;-82
2023/05/08 09:11:23;;;;;;;0.60;0.50;;;22.70;99.90;;;;;;5054995;28;20524;-81
2023/05/08 09:13:50;;;;;;;1.47;1.03;;;22.70;99.90;;;;;;5074752;28;20436;-82
2023/05/08 09:16:18;;;;;;;0.87;0.83;;;22.20;99.90;;;;;;5074546;28;20440;-81
2023/05/08 09:18:45;;;;;;;0.83;0.83;;;21.60;99.90;;;;;;5074225;28;20539;-79
2023/05/08 09:21:13;;;;;;;1.00;0.50;;;21.20;99.90;;;;;;5074729;28;20901;-82
2023/05/08 09:23:55;;;;;;;0.50;0.40;;;21.10;99.90;;;;;;5055233;28;20433;-82
2023/05/08 09:26:31;;;;;;;0.50;0.30;;;20.90;99.90;;;;;;5055015;28;20441;-83
2023/05/08 09:29:12;;;;;;;0.50;0.40;;;20.90;99.90;;;;;;5063080;28;20429;-82
2023/05/08 09:31:42;;;;;;;0.50;0.40;;;21.00;99.90;;;;;;5056128;28;20462;-82
2023/05/08 09:34:09;;;;;;;0.50;0.30;;;21.00;99.90;;;;;;5056292;28;20449;-83
2023/05/08 09:36:38;;;;;;;0.50;0.30;;;20.90;99.90;;;;;;5063216;28;20439;-82
2023/05/08 09:39:09;;;;;;;0.50;0.30;;;20.90;99.90;;;;;;5055088;28;20940;-80
2023/05/08 09:41:36;;;;;;;0.60;0.43;;;20.70;99.90;;;;;;5056024;28;20472;-81
2023/05/08 09:44:04;;;;;;;0.60;0.50;;;20.50;99.90;;;;;;5055434;28;20812;-84
2023/05/08 09:46:32;;;;;;;0.50;0.50;;;20.30;99.90;;;;;;5056617;28;20881;-83
2023/05/08 09:49:02;;;;;;;0.50;0.40;;;20.20;99.90;;;;;;5055178;28;20449;-80
2023/05/08 09:51:30;;;;;;;0.67;0.67;;;20.10;99.90;;;;;;5054732;28;20437;-80
2023/05/08 09:53:59;;;;;;;0.50;0.50;;;20.00;99.90;;;;;;5054677;28;20441;-82
2023/05/08 09:56:33;;;;;;;0.50;0.50;;;20.00;99.90;;;;;;5071875;28;20444;-83
2023/05/08 09:59:01;;;;;;;0.50;0.30;;;20.00;99.90;;;;;;5074019;28;20474;-83
2023/05/08 10:01:30;;;;;;;0.60;0.50;;;20.00;99.90;;;;;;5072354;28;20557;-82
2023/05/08 10:03:57;;;;;;;5.20;1.13;;;20.10;99.90;;;;;;5053411;28;20449;-82
2023/05/08 10:06:27;;;;;;;0.50;0.30;;;20.10;99.90;;;;;;5053768;28;20899;-81
2023/05/08 10:09:13;;;;;;;0.60;0.60;;;20.20;99.90;;;;;;5054491;28;20441;-82
2023/05/08 10:11:41;;;;;;;0.63;0.63;;;20.00;99.90;;;;;;5054588;28;20502;-82
2023/05/08 10:14:09;;;;;;;1.50;1.50;;;19.90;99.90;;;;;;5059628;28;20535;-82
2023/05/08 10:16:42;;;;;;;0.60;0.50;;;20.00;99.90;;;;;;5073744;28;20447;-80
2023/05/08 10:19:13;;;;;;;0.50;0.30;;;20.00;99.90;;;;;;5073478;28;20527;-82
2023/05/08 10:21:44;;;;;;;0.50;0.40;;;20.10;99.90;;;;;;5073885;28;20471;-82
2023/05/08 10:24:15;;;;;;;1.17;0.70;;;20.10;99.90;;;;;;5073849;28;20456;-82
2023/05/08 10:26:47;;;;;;;0.50;0.40;;;20.00;99.90;;;;;;5073917;28;20444;-79
2023/05/08 10:29:18;;;;;;;0.80;0.60;;;19.90;99.90;;;;;;5073164;28;20444;-80
2023/05/08 10:31:49;;;;;;;0.50;0.40;;;19.70;99.90;;;;;;5073521;28;20444;-82
2023/05/08 10:34:19;;;;;;;0.87;0.87;;;19.90;99.90;;;;;;5073485;28;20980;-81
2023/05/08 10:36:48;;;;;;;0.60;0.50;;;19.80;99.90;;;;;;5073438;28;20432;-81
2023/05/08 10:39:15;;;;;;;1.23;0.90;;;19.70;99.90;;;;;;5073308;28;20953;-80
2023/05/08 10:41:43;;;;;;;0.50;0.30;;;19.70;99.90;;;;;;5073152;28;21026;-82
2023/05/08 10:44:10;;;;;;;0.50;0.30;;;19.80;99.90;;;;;;5074054;28;20468;-79
2023/05/08 10:46:44;;;;;;;0.50;0.40;;;19.90;99.90;;;;;;5073545;28;20489;-81
2023/05/08 10:49:19;;;;;;;0.50;0.30;;;19.90;99.90;;;;;;5073486;28;20468;-82
2023/05/08 10:51:59;;;;;;;0.50;0.30;;;19.80;99.90;;;;;;5053639;28;20458;-81
2023/05/08 10:54:38;;;;;;;0.67;0.50;;;19.80;99.90;;;;;;5053293;28;20464;-80
2023/05/08 10:57:09;;;;;;;0.60;0.57;;;19.90;99.90;;;;;;5046711;28;20455;-81
2023/05/08 10:59:37;;;;;;;0.50;0.30;;;19.80;99.90;;;;;;5054404;28;21003;-81
2023/05/08 11:02:05;;;;;;;0.50;0.30;;;20.00;99.90;;;;;;5073157;28;20839;-80
2023/05/08 11:04:32;;;;;;;0.50;0.30;;;20.00;99.90;;;;;;5073040;28;20467;-81
2023/05/08 11:07:00;;;;;;;0.50;0.30;;;20.20;99.90;;;;;;5073417;28;20550;-83
2023/05/08 11:09:29;;;;;;;0.50;0.30;;;20.40;99.90;;;;;;5073553;28;20888;-82
2023/05/08 11:12:07;;;;;;;1.37;1.27;;;20.70;99.90;;;;;;5069550;28;20503;-83
2023/05/08 11:14:36;;;;;;;0.60;0.53;;;21.00;99.90;;;;;;5055932;28;20460;-82
2023/05/08 11:17:05;;;;;;;0.50;0.37;;;20.90;99.90;;;;;;5057300;28;20441;-82
2023/05/08 11:19:32;;;;;;;0.50;0.30;;;20.70;99.90;;;;;;5073890;28;20440;-82
2023/05/08 11:22:24;;;;;;;0.50;0.30;;;20.60;99.90;;;;;;5076616;28;20472;-83
2023/05/08 11:24:54;;;;;;;0.50;0.40;;;20.90;99.90;;;;;;5075918;28;20452;-81
2023/05/08 11:27:40;;;;;;;0.50;0.30;;;21.00;99.90;;;;;;5076899;28;20432;-82
2023/05/08 11:30:22;;;;;;;0.50;0.30;;;21.00;99.90;;;;;;5076590;28;20429;-83
2023/05/08 11:33:14;;;;;;;0.50;0.30;;;21.20;99.90;;;;;;5077190;28;20569;-81
2023/05/08 11:35:43;;;;;;;0.50;0.40;;;21.40;99.90;;;;;;5055548;28;20837;-83
2023/05/08 11:38:19;;;;;;;0.50;0.40;;;21.50;99.90;;;;;;5062439;28;20432;-83
2023/05/08 11:40:48;;;;;;;0.50;0.30;;;21.30;99.90;;;;;;5059237;28;20478;-80
2023/05/08 11:43:26;;;;;;;0.50;0.40;;;21.40;99.90;;;;;;5066347;28;20519;-80
2023/05/08 11:45:54;;;;;;;3.70;2.10;;;21.50;99.90;;;;;;5079042;28;20460;-81
2023/05/08 11:48:20;;;;;;;0.50;0.30;;;22.00;99.90;;;;;;5075859;28;20444;-81
2023/05/08 11:50:47;;;;;;;0.50;0.40;;;22.50;99.90;;;;;;5073275;28;20439;-83
2023/05/08 11:53:14;;;;;;;0.50;0.40;;;22.80;99.90;;;;;;5056424;28;20446;-82
2023/05/08 11:55:42;;;;;;;0.50;0.40;;;23.30;99.90;;;;;;5065267;28;20834;-81
2023/05/08 11:58:13;;;;;;;0.50;0.33;;;23.80;99.90;;;;;;5075752;28;20528;-81
2023/05/08 12:00:43;;;;;;;0.97;0.97;;;24.00;99.90;;;;;;5075433;28;20476;-82
2023/05/08 12:03:12;;;;;;;0.50;0.33;;;23.60;99.90;;;;;;5075778;28;20944;-80
2023/05/08 12:05:39;;;;;;;0.50;0.40;;;23.30;99.90;;;;;;5075117;28;20468;-82
2023/05/08 12:08:06;;;;;;;0.60;0.60;;;22.90;99.90;;;;;;5070983;28;20488;-81
2023/05/08 12:10:40;;;;;;;0.50;0.40;;;23.10;99.90;;;;;;5055919;28;20929;-82
2023/05/08 12:13:17;;;;;;;4.63;1.43;;;23.00;99.90;;;;;;5075165;28;20966;-81
2023/05/08 12:15:45;;;;;;;0.80;0.80;;;23.00;99.90;;;;;;5075380;28;20460;-80
2023/05/08 12:18:12;;;;;;;0.50;0.30;;;23.10;99.90;;;;;;5075357;28;20523;-82
2023/05/08 12:20:39;;;;;;;0.50;0.30;;;23.20;99.90;;;;;;5065940;28;20476;-83
2023/05/08 12:23:07;;;;;;;0.50;0.50;;;23.20;99.90;;;;;;5055834;28;20527;-82
2023/05/08 12:25:34;;;;;;;0.50;0.30;;;23.40;99.90;;;;;;5054768;28;20461;-82
2023/05/08 12:28:01;;;;;;;0.70;0.60;;;23.50;99.90;;;;;;5055375;28;20449;-82
2023/05/08 12:30:29;;;;;;;0.50;0.30;;;23.60;99.90;;;;;;5055115;28;20463;-82
2023/05/08 12:32:57;;;;;;;0.50;0.30;;;23.70;99.90;;;;;;5058897;28;20438;-82
2023/05/08 12:35:24;;;;;;;0.50;0.40;;;23.70;99.90;;;;;;5075065;28;20460;-84
2023/05/08 12:37:52;;;;;;;1.73;1.63;;;23.80;99.90;;;;;;5075210;28;20466;-81
2023/05/08 12:40:26;;;;;;;0.60;0.60;;;23.70;99.90;;;;;;5075058;28;20453;-81
2023/05/08 12:42:54;;;;;;;0.50;0.30;;;23.60;99.90;;;;;;5075414;28;20451;-83
2023/05/08 12:45:21;;;;;;;4.73;1.90;;;23.30;99.90;;;;;;5074857;28;20455;-83
2023/05/08 12:47:51;;;;;;;0.50;0.30;;;23.20;99.90;;;;;;5074715;28;20436;-83
2023/05/08 12:50:21;;;;;;;0.50;0.30;;;23.30;99.90;;;;;;5074532;28;20497;-82
2023/05/08 12:52:48;;;;;;;0.50;0.50;;;23.60;99.90;;;;;;5074514;28;20437;-83
2023/05/08 12:55:23;;;;;;;0.50;0.30;;;23.60;99.90;;;;;;5074435;28;20462;-84
2023/05/08 12:57:50;;;;;;;0.50;0.40;;;23.80;99.90;;;;;;5074136;28;20854;-81
2023/05/08 13:00:18;;;;;;;0.50;0.30;;;23.80;99.90;;;;;;5074925;28;20444;-83